METAR Data
IDs: Format: Raw Decoded Include TAF

Data at: 0147 UTC 20 Jan 2022

KASE 200053Z 00000KT 10SM CLR M03/M09 A3011 RMK AO2 SLP217 T10331094
KASE 192353Z 32004KT 10SM BKN070 M01/M11 A3009 RMK AO2 SLP200 T10061106 10022 21022 53008
KASE 192253Z 34008KT 10SM CLR 00/M11 A3007 RMK AO2 SLP194 T00001106
KASE 192153Z 35007KT 10SM CLR 01/M11 A3006 RMK AO2 SLP176 T00111111
KASE 192053Z 02006KT 10SM CLR 02/M11 A3006 RMK AO2 SLP174 T00171106 56011
KASE 191953Z 01005KT 10SM CLR 01/M12 A3006 RMK AO2 SLP177 T00061122
KASE 191853Z 33005KT 10SM CLR M02/M12 A3008 RMK AO2 SLP195 T10171122
KASE 191753Z 35005KT 10SM CLR M02/M13 A3009 RMK AO2 SLP192 T10221128 11022 21117 50005
KASE 191653Z 00000KT 10SM CLR M04/M14 A3009 RMK AO2 SLP200 T10391139
KASE 191553Z 00000KT 10SM CLR M08/M14 A3009 RMK AO2 SLP207 T10831144
KASE 191453Z 19006KT 10SM CLR M11/M16 A3007 RMK AO2 SLP204 T11111156 53009
KASE 191353Z 21004KT 10SM CLR M08/M16 A3005 RMK AO2 SLP188 T10831156
KASE 191253Z AUTO 20006KT 10SM CLR M10/M16 A3005 RMK AO2 SLP203 T11001161
KASE 191153Z AUTO 19006KT 10SM CLR M11/M16 A3004 RMK AO2 SLP185 T11061161 11056 21117 50004
KASE 191053Z AUTO 19005KT 10SM CLR M12/M16 A3005 RMK AO2 SLP188 T11171161
KASE 190953Z AUTO 19004KT 10SM CLR M08/M14 A3004 RMK AO2 SLP169 T10831144
KASE 190853Z AUTO 18006KT 10SM CLR M09/M14 A3002 RMK AO2 SLP164 T10891144 53002
KASE 190753Z AUTO 20005KT 10SM CLR M07/M13 A3002 RMK AO2 SLP162 T10721133
KASE 190653Z AUTO 22004KT 10SM CLR M08/M13 A3002 RMK AO2 SLP178 T10831133 400281133
KASE 190553Z AUTO 21005KT 10SM CLR M06/M12 A3002 RMK AO2 SLP169 T10561122 11006 21067 51004
KASE 190453Z AUTO 20003KT 10SM CLR M06/M12 A3001 RMK AO2 SLP179 T10611117
KASE 190353Z AUTO 00000KT 10SM FEW120 M04/M11 A3001 RMK AO2 SLP178 T10441111
KASE 190253Z AUTO 21007KT 10SM OVC100 M03/M12 A3001 RMK AO2 SLP175 T10281117 51012
KASE 190153Z 20007KT 10SM OVC120 M03/M12 A3000 RMK AO2 SLP178 T10281117
KASE 190053Z 18004KT 10SM FEW120 M06/M12 A2999 RMK AO2 SLP182 T10611117
KASE 182353Z 01004KT 10SM BKN095 M01/M12 A2996 RMK AO2 SLP145 T10061117 10028 21039 53006
KASE 182253Z 32004KT 10SM OVC100 01/M13 A2994 RMK AO2 SLP139 T00061128
KASE 182153Z 33004KT 10SM SCT100 01/M12 A2993 RMK AO2 SLP130 T00111122
KASE 182053Z 00000KT 10SM CLR 02/M14 A2994 RMK AO2 SLP133 T00171139 $
KASE 181953Z 00000KT 10SM CLR 00/M13 A2997 RMK AO2 SLP150 T00001128
KASE 181853Z 32005KT 10SM CLR M03/M12 A2999 RMK AO2 SLP162 T10331122
KASE 181753Z 35004KT 10SM CLR M04/M13 A3001 RMK AO2 SLP169 T10391128 11033 21133 50000
KASE 181653Z 00000KT 10SM CLR M06/M14 A3001 RMK AO2 SLP179 T10611144
KASE 181553Z 17004KT 10SM FEW110 M08/M15 A3000 RMK AO2 SLP179 T10781150
KASE 181453Z 19007KT 10SM CLR M10/M16 A3001 RMK AO2 SLP184 T11001161 51006
KASE 181353Z 14004KT 10SM CLR M11/M16 A3000 RMK AO2 SLP190 T11111161